createdAt,value
2019-03-19T00:01:36.617Z,8.25
2019-03-19T00:04:04.060Z,7.72
2019-03-19T00:06:31.671Z,8.78
2019-03-19T00:08:59.826Z,9.68
2019-03-19T00:11:29.282Z,8.78
2019-03-19T00:13:57.211Z,10.70
2019-03-19T00:16:24.887Z,8.63
2019-03-19T00:18:52.609Z,9.65
2019-03-19T00:21:32.479Z,8.75
2019-03-19T00:24:00.457Z,11.20
2019-03-19T00:26:29.712Z,9.90
2019-03-19T00:28:57.293Z,10.55
2019-03-19T00:31:24.552Z,10.03
2019-03-19T00:33:52.156Z,10.38
2019-03-19T00:36:19.911Z,11.90
2019-03-19T00:38:47.197Z,15.28
2019-03-19T00:41:15.265Z,14.03
2019-03-19T00:43:42.780Z,12.90
2019-03-19T00:46:10.695Z,11.93
2019-03-19T00:48:38.704Z,13.50
2019-03-19T00:51:06.507Z,12.37
2019-03-19T00:53:35.779Z,14.63
2019-03-19T00:56:03.479Z,14.68
2019-03-19T00:58:30.717Z,13.38
2019-03-19T01:00:58.337Z,13.93
2019-03-19T01:03:25.923Z,14.45
2019-03-19T01:05:53.187Z,14.80
2019-03-19T01:08:20.753Z,15.93
2019-03-19T01:10:49.103Z,16.32
2019-03-19T01:13:16.771Z,17.12
2019-03-19T01:15:44.337Z,21.77
2019-03-19T01:18:11.782Z,17.52
2019-03-19T01:20:39.882Z,20.40
2019-03-19T01:23:07.793Z,21.00
2019-03-19T01:25:35.280Z,20.40
2019-03-19T01:28:02.637Z,20.23
2019-03-19T01:30:30.282Z,21.77
2019-03-19T01:32:59.039Z,23.35
2019-03-19T01:35:28.861Z,21.95
2019-03-19T01:37:56.251Z,16.43
2019-03-19T01:40:23.867Z,19.07
2019-03-19T01:42:51.276Z,19.80
2019-03-19T01:45:19.266Z,17.92
2019-03-19T01:47:46.512Z,16.37
2019-03-19T01:50:14.186Z,16.02
2019-03-19T01:52:41.445Z,15.00
2019-03-19T01:55:09.141Z,22.00
2019-03-19T01:57:37.037Z,19.77
2019-03-19T02:00:05.335Z,18.12
2019-03-19T02:02:32.646Z,23.25
2019-03-19T02:05:00.507Z,17.82
2019-03-19T02:07:28.177Z,17.65
2019-03-19T02:09:55.775Z,19.32
2019-03-19T02:12:23.597Z,18.52
2019-03-19T02:14:51.521Z,19.82
2019-03-19T02:17:19.222Z,21.02
2019-03-19T02:19:46.929Z,17.00
2019-03-19T02:22:14.456Z,18.52
2019-03-19T02:24:41.746Z,23.05
2019-03-19T02:27:09.920Z,21.07
2019-03-19T02:29:37.377Z,24.27
2019-03-19T02:32:04.886Z,26.57
2019-03-19T02:34:33.589Z,29.60
2019-03-19T02:37:00.880Z,24.47
2019-03-19T02:39:28.221Z,24.07
2019-03-19T02:41:56.200Z,24.72
2019-03-19T02:44:23.711Z,23.73
2019-03-19T02:46:51.528Z,24.52
2019-03-19T02:49:19.135Z,26.73
2019-03-19T02:51:46.797Z,27.17
2019-03-19T02:54:15.305Z,27.77
2019-03-19T02:56:43.442Z,24.47
2019-03-19T02:59:11.691Z,30.85
2019-03-19T03:01:39.395Z,28.17
2019-03-19T03:04:07.078Z,31.73
2019-03-19T03:06:35.409Z,35.48
2019-03-19T03:09:06.280Z,33.65
2019-03-19T03:11:34.032Z,35.88
2019-03-19T03:14:01.471Z,34.45
2019-03-19T03:16:28.749Z,39.20
2019-03-19T03:18:56.492Z,36.70
2019-03-19T03:21:23.769Z,37.28
2019-03-19T03:23:51.526Z,38.53
2019-03-19T03:26:19.552Z,35.33
2019-03-19T03:28:46.858Z,29.72
2019-03-19T03:31:14.974Z,33.80
2019-03-19T03:33:42.670Z,32.75
2019-03-19T03:36:10.598Z,35.08
2019-03-19T03:38:38.134Z,35.70
2019-03-19T03:41:05.734Z,38.13
2019-03-19T03:43:33.437Z,39.98
2019-03-19T03:46:01.179Z,43.00
2019-03-19T03:48:29.244Z,40.45
2019-03-19T03:50:56.911Z,37.08
2019-03-19T03:53:24.606Z,37.75
2019-03-19T03:55:52.144Z,35.30
2019-03-19T03:58:20.664Z,37.25
2019-03-19T04:00:47.956Z,39.67
2019-03-19T04:03:15.688Z,43.35
2019-03-19T04:05:43.198Z,41.53
2019-03-19T04:08:12.258Z,36.30
2019-03-19T04:10:39.905Z,34.75
2019-03-19T04:13:08.018Z,35.30
2019-03-19T04:15:36.661Z,38.08
2019-03-19T04:18:04.171Z,35.05
2019-03-19T04:20:33.320Z,38.42
2019-03-19T04:23:01.646Z,40.65
2019-03-19T04:25:29.222Z,37.78
2019-03-19T04:27:57.416Z,33.15
2019-03-19T04:30:26.276Z,31.17
2019-03-19T04:32:53.968Z,33.15
2019-03-19T04:35:21.720Z,32.33
2019-03-19T04:37:49.802Z,27.27
2019-03-19T04:40:17.545Z,32.28
2019-03-19T04:42:44.797Z,32.23
2019-03-19T04:45:18.181Z,28.27
2019-03-19T04:47:45.727Z,30.90
2019-03-19T04:50:13.935Z,26.82
2019-03-19T04:52:41.643Z,26.27
2019-03-19T04:55:09.608Z,30.25
2019-03-19T04:57:37.219Z,26.20
2019-03-19T05:00:05.218Z,31.23
2019-03-19T05:02:32.626Z,27.62
2019-03-19T05:05:00.323Z,29.40
2019-03-19T05:07:28.434Z,28.87
2019-03-19T05:09:56.303Z,27.15
2019-03-19T05:12:23.539Z,28.45
2019-03-19T05:14:51.588Z,26.57
2019-03-19T05:17:19.096Z,28.30
2019-03-19T05:19:46.996Z,27.42
2019-03-19T05:22:14.243Z,31.00
2019-03-19T05:24:41.701Z,30.62
2019-03-19T05:27:09.329Z,32.33
2019-03-19T05:29:36.903Z,27.45
2019-03-19T05:32:04.829Z,27.85
2019-03-19T05:34:32.053Z,32.93
2019-03-19T05:36:59.802Z,33.58
2019-03-19T05:39:30.191Z,33.25
2019-03-19T05:41:57.588Z,30.48
2019-03-19T05:44:25.578Z,30.25
2019-03-19T05:46:53.157Z,30.62
2019-03-19T05:49:21.258Z,31.02
2019-03-19T05:51:48.806Z,30.72
2019-03-19T05:54:16.109Z,30.15
2019-03-19T05:56:43.633Z,34.88
2019-03-19T05:59:11.107Z,35.23
2019-03-19T06:01:39.142Z,28.85
2019-03-19T06:04:06.934Z,32.95
2019-03-19T06:06:34.950Z,27.45
2019-03-19T06:09:04.496Z,31.17
2019-03-19T06:11:32.710Z,26.10
2019-03-19T06:14:00.658Z,31.00
2019-03-19T06:16:28.625Z,27.58
2019-03-19T06:18:56.086Z,24.72
2019-03-19T06:21:24.066Z,24.95
2019-03-19T06:23:51.680Z,25.08
2019-03-19T06:26:19.131Z,27.25
2019-03-19T06:28:46.769Z,26.23
2019-03-19T06:31:14.465Z,26.48
2019-03-19T06:33:42.495Z,24.85
2019-03-19T06:36:10.089Z,30.12
2019-03-19T06:38:38.208Z,26.62
2019-03-19T06:41:06.251Z,31.07
2019-03-19T06:43:33.939Z,24.92
2019-03-19T06:46:01.481Z,25.37
2019-03-19T06:48:28.918Z,25.05
2019-03-19T06:50:56.525Z,23.45
2019-03-19T06:53:23.818Z,23.75
2019-03-19T06:55:51.728Z,24.80
2019-03-19T06:58:18.927Z,23.45
2019-03-19T07:00:46.827Z,22.82
2019-03-19T07:03:14.297Z,27.45
2019-03-19T07:05:41.832Z,25.72
2019-03-19T07:08:09.922Z,25.68
2019-03-19T07:10:37.584Z,23.70
2019-03-19T07:13:05.158Z,21.30
2019-03-19T07:15:33.441Z,21.82
2019-03-19T07:18:01.769Z,21.23
2019-03-19T07:20:29.089Z,21.70
2019-03-19T07:22:56.652Z,21.45
2019-03-19T07:25:24.267Z,23.10
2019-03-19T07:27:51.788Z,22.25
2019-03-19T07:30:19.686Z,24.15
2019-03-19T07:32:47.155Z,24.00
2019-03-19T07:35:14.934Z,19.52
2019-03-19T07:37:42.570Z,19.82
2019-03-19T07:40:10.950Z,20.55
2019-03-19T07:42:39.111Z,21.10
2019-03-19T07:45:09.040Z,18.98
2019-03-19T07:47:36.804Z,18.60
2019-03-19T07:50:05.589Z,20.50
2019-03-19T07:52:36.428Z,19.37
2019-03-19T07:55:05.187Z,20.37
2019-03-19T07:57:32.707Z,20.95
2019-03-19T08:00:00.650Z,21.40
2019-03-19T08:02:28.380Z,21.17
2019-03-19T08:04:55.856Z,21.23
2019-03-19T08:07:24.005Z,18.75
2019-03-19T08:09:52.112Z,19.50
2019-03-19T08:12:19.447Z,18.80
2019-03-19T08:14:47.225Z,22.87
2019-03-19T08:18:05.608Z,20.05
2019-03-19T08:20:33.103Z,20.37
2019-03-19T08:23:00.488Z,17.10
2019-03-19T08:25:27.728Z,16.17
2019-03-19T08:27:55.231Z,20.17
2019-03-19T08:30:24.525Z,19.32
2019-03-19T08:32:52.232Z,17.07
2019-03-19T08:35:20.402Z,16.70
2019-03-19T08:37:48.142Z,16.82
2019-03-19T08:40:15.879Z,23.67
2019-03-19T08:42:44.298Z,19.23
2019-03-19T08:45:12.133Z,17.27
2019-03-19T08:47:40.468Z,19.15
2019-03-19T08:50:10.599Z,18.23
2019-03-19T08:52:40.955Z,20.20
2019-03-19T08:55:08.567Z,18.85
2019-03-19T08:57:36.559Z,18.70
2019-03-19T09:00:06.233Z,18.73
2019-03-19T09:02:33.544Z,17.20
2019-03-19T09:05:03.101Z,18.90
2019-03-19T09:07:31.109Z,19.77
2019-03-19T09:09:59.274Z,16.95
2019-03-19T09:12:26.529Z,15.63
2019-03-19T09:14:53.891Z,17.55
2019-03-19T09:17:21.483Z,15.03
2019-03-19T09:19:51.463Z,15.53
2019-03-19T09:22:21.007Z,17.45
2019-03-19T09:24:48.252Z,18.00
2019-03-19T09:27:16.083Z,18.07
2019-03-19T09:29:44.036Z,15.85
2019-03-19T09:32:11.701Z,17.60
2019-03-19T09:34:39.540Z,15.00
2019-03-19T09:37:08.022Z,14.50
2019-03-19T09:39:35.730Z,15.15
2019-03-19T09:42:03.487Z,15.65
2019-03-19T09:44:30.999Z,14.15
2019-03-19T09:46:58.993Z,17.52
2019-03-19T09:49:26.658Z,15.88
2019-03-19T09:51:54.495Z,17.12
2019-03-19T09:54:21.978Z,18.45
2019-03-19T09:56:50.456Z,16.37
2019-03-19T09:59:26.761Z,19.45
2019-03-19T10:01:48.623Z,13.90
2019-03-19T10:04:16.593Z,14.65
2019-03-19T10:06:44.189Z,14.60
2019-03-19T10:09:11.839Z,13.22
2019-03-19T10:11:39.399Z,14.43
2019-03-19T10:14:08.815Z,13.93
2019-03-19T10:16:36.709Z,14.10
2019-03-19T10:19:04.301Z,13.88
2019-03-19T10:21:32.611Z,13.80
2019-03-19T10:24:00.150Z,12.93
2019-03-19T10:26:27.378Z,14.87
2019-03-19T10:28:55.079Z,14.33
2019-03-19T10:31:22.832Z,13.53
2019-03-19T10:33:50.413Z,11.80
2019-03-19T10:36:18.048Z,10.18
2019-03-19T10:38:45.506Z,9.83
2019-03-19T10:41:13.180Z,9.23
2019-03-19T10:43:41.118Z,8.78
2019-03-19T10:46:08.773Z,8.05
2019-03-19T10:48:36.495Z,10.70
2019-03-19T10:51:04.527Z,11.33
2019-03-19T10:53:32.544Z,10.23
2019-03-19T10:56:00.794Z,9.70
2019-03-19T10:58:30.377Z,9.88
2019-03-19T11:00:57.604Z,7.05
2019-03-19T11:03:25.245Z,6.78
2019-03-19T11:05:52.727Z,6.72
2019-03-19T11:08:20.910Z,5.83
2019-03-19T11:10:48.384Z,7.22
2019-03-19T11:13:15.830Z,8.88
2019-03-19T11:15:43.091Z,6.30
2019-03-19T11:18:10.748Z,7.08
2019-03-19T11:20:38.419Z,7.67
2019-03-19T11:23:06.150Z,5.30
2019-03-19T11:25:33.401Z,7.40
2019-03-19T11:28:00.996Z,6.33
2019-03-19T11:30:29.579Z,7.83
2019-03-19T11:32:57.125Z,5.50
2019-03-19T11:35:24.673Z,6.17
2019-03-19T11:37:52.366Z,9.25
2019-03-19T11:40:21.170Z,7.10
2019-03-19T11:42:49.560Z,9.63
2019-03-19T11:45:17.361Z,6.05
2019-03-19T11:47:45.973Z,7.20
2019-03-19T11:50:15.478Z,8.15
2019-03-19T11:52:43.081Z,6.90
2019-03-19T11:55:10.916Z,5.97
2019-03-19T11:57:38.460Z,6.67
2019-03-19T12:00:11.504Z,6.30
2019-03-19T12:02:38.396Z,6.08
2019-03-19T12:05:05.985Z,6.65
2019-03-19T12:07:33.623Z,7.15
2019-03-19T12:10:00.820Z,6.17
2019-03-19T12:12:28.329Z,6.00
2019-03-19T12:14:56.002Z,7.80
2019-03-19T12:17:23.653Z,6.42
2019-03-19T12:19:51.503Z,7.47
2019-03-19T12:22:21.698Z,5.00
2019-03-19T12:24:49.911Z,7.50
2019-03-19T12:27:17.548Z,7.10
2019-03-19T12:29:46.451Z,5.62
2019-03-19T12:32:13.803Z,7.37
2019-03-19T12:34:41.181Z,6.53
2019-03-19T12:37:09.101Z,7.78
2019-03-19T12:39:36.557Z,6.00
2019-03-19T12:42:03.896Z,5.22
2019-03-19T12:44:31.786Z,6.58
2019-03-19T12:46:59.628Z,8.20
2019-03-19T12:49:27.270Z,6.30
2019-03-19T12:51:58.579Z,5.30
2019-03-19T12:54:32.636Z,5.67
2019-03-19T12:57:00.336Z,7.75
2019-03-19T12:59:34.579Z,7.22
2019-03-19T13:02:18.482Z,8.20
2019-03-19T13:04:50.444Z,5.85
2019-03-19T13:07:23.407Z,6.47
2019-03-19T13:09:50.999Z,9.88
2019-03-19T13:12:49.903Z,6.75
2019-03-19T13:15:21.509Z,8.00
2019-03-19T13:17:50.027Z,9.95
2019-03-19T13:20:17.711Z,5.75
2019-03-19T13:22:57.930Z,6.17
2019-03-19T13:25:35.289Z,6.55
2019-03-19T13:28:04.801Z,6.12
2019-03-19T13:30:44.429Z,5.05
2019-03-19T13:33:03.576Z,6.67
2019-03-19T13:35:30.906Z,4.85
2019-03-19T13:37:59.426Z,11.75
2019-03-19T13:40:27.066Z,6.78
2019-03-19T13:42:54.658Z,6.83
2019-03-19T13:45:22.249Z,7.15
2019-03-19T13:47:50.660Z,10.30
2019-03-19T13:50:19.615Z,11.05
2019-03-19T13:52:48.109Z,5.35
2019-03-19T13:55:15.954Z,8.75
2019-03-19T13:57:43.349Z,8.15
2019-03-19T14:00:11.755Z,6.80
2019-03-19T14:02:39.492Z,6.97
2019-03-19T14:05:07.985Z,5.60
2019-03-19T14:07:36.225Z,8.90
2019-03-19T14:10:04.748Z,6.53
2019-03-19T14:12:32.325Z,6.37
2019-03-19T14:15:00.669Z,6.25
2019-03-19T14:17:30.064Z,7.05
2019-03-19T14:19:57.803Z,8.75
2019-03-19T14:22:25.431Z,7.78
2019-03-19T14:24:54.047Z,9.65
2019-03-19T14:27:21.601Z,10.65
2019-03-19T14:29:51.537Z,7.08
2019-03-19T14:32:18.426Z,7.28
2019-03-19T14:34:46.129Z,6.10
2019-03-19T14:37:13.910Z,7.30
2019-03-19T14:39:42.101Z,7.45
2019-03-19T14:42:10.037Z,8.48
2019-03-19T14:44:37.529Z,7.83
2019-03-19T14:47:04.773Z,6.37
2019-03-19T14:49:32.951Z,8.05
2019-03-19T14:52:01.140Z,8.90
2019-03-19T14:54:28.890Z,6.37
2019-03-19T14:56:56.347Z,7.78
2019-03-19T14:59:26.101Z,5.55
2019-03-19T15:01:53.849Z,12.70
2019-03-19T15:04:22.206Z,8.85
2019-03-19T15:06:49.780Z,6.55
2019-03-19T15:09:19.017Z,8.70
2019-03-19T15:11:47.120Z,6.37
2019-03-19T15:14:14.873Z,7.95
2019-03-19T15:16:42.777Z,7.50
2019-03-19T15:19:10.859Z,6.92
2019-03-19T15:21:38.726Z,6.08
2019-03-19T15:24:06.793Z,3.95
2019-03-19T15:26:34.953Z,7.22
2019-03-19T15:29:03.646Z,10.10
2019-03-19T15:31:31.353Z,8.73
2019-03-19T15:33:59.972Z,7.85
2019-03-19T15:36:27.539Z,6.72
2019-03-19T15:38:55.405Z,7.65
2019-03-19T15:41:23.102Z,8.85
2019-03-19T15:43:51.316Z,7.05
2019-03-19T15:46:20.840Z,9.05
2019-03-19T15:48:48.058Z,11.12
2019-03-19T15:51:15.812Z,5.92
2019-03-19T15:53:44.267Z,6.33
2019-03-19T15:56:11.979Z,8.70
2019-03-19T15:58:40.226Z,7.47
2019-03-19T16:01:07.846Z,9.15
2019-03-19T16:03:35.331Z,6.22
2019-03-19T16:06:03.257Z,10.10
2019-03-19T16:08:30.910Z,7.50
2019-03-19T16:10:58.862Z,6.83
2019-03-19T16:13:26.147Z,8.05
2019-03-19T16:15:53.894Z,7.70
2019-03-19T16:18:21.575Z,7.47
2019-03-19T16:20:49.202Z,7.28
2019-03-19T16:23:17.682Z,8.13
2019-03-19T16:25:45.917Z,7.33
2019-03-19T16:28:13.514Z,5.87
2019-03-19T16:30:41.496Z,5.97
2019-03-19T16:33:09.444Z,11.38
2019-03-19T16:35:37.644Z,11.53
2019-03-19T16:38:05.688Z,5.20
2019-03-19T16:40:33.353Z,8.78
2019-03-19T16:43:01.169Z,9.63
2019-03-19T16:45:29.004Z,8.08
2019-03-19T16:47:56.571Z,7.62
2019-03-19T16:50:25.063Z,9.20
2019-03-19T16:52:52.511Z,12.18
2019-03-19T16:55:21.611Z,7.37
2019-03-19T16:57:49.496Z,7.00
2019-03-19T17:00:16.991Z,7.67
2019-03-19T17:02:44.558Z,7.17
2019-03-19T17:05:12.683Z,10.25
2019-03-19T17:07:39.890Z,7.85
2019-03-19T17:10:09.283Z,8.18
2019-03-19T17:12:36.850Z,7.90
2019-03-19T17:15:04.476Z,7.83
2019-03-19T17:17:32.060Z,6.20
2019-03-19T17:20:00.332Z,8.55
2019-03-19T17:22:28.367Z,8.08
2019-03-19T17:24:55.550Z,11.08
2019-03-19T17:27:23.466Z,10.45
2019-03-19T17:29:51.715Z,11.08
2019-03-19T17:32:19.820Z,19.23
2019-03-19T17:34:47.877Z,13.05
2019-03-19T17:37:15.459Z,8.50
2019-03-19T17:39:43.206Z,7.00
2019-03-19T17:42:11.347Z,10.93
2019-03-19T17:44:39.665Z,13.80
2019-03-19T17:47:08.724Z,6.25
2019-03-19T17:49:36.944Z,8.33
2019-03-19T17:52:04.771Z,6.10
2019-03-19T17:54:32.659Z,12.75
2019-03-19T17:56:59.918Z,7.83
2019-03-19T17:59:27.811Z,9.18
2019-03-19T18:01:57.179Z,8.85
2019-03-19T18:04:25.551Z,5.87
2019-03-19T18:06:54.048Z,9.45
2019-03-19T18:09:21.247Z,12.07
2019-03-19T18:11:49.169Z,11.03
2019-03-19T18:14:17.215Z,9.58
2019-03-19T18:16:45.788Z,9.38
2019-03-19T18:19:14.082Z,8.43
2019-03-19T18:21:42.606Z,10.80
2019-03-19T18:24:10.717Z,13.28
2019-03-19T18:26:38.175Z,14.63
2019-03-19T18:29:06.175Z,12.03
2019-03-19T18:31:33.691Z,15.68
2019-03-19T18:34:09.945Z,10.32
2019-03-19T18:36:31.353Z,10.03
2019-03-19T18:38:59.851Z,11.57
2019-03-19T18:41:27.378Z,13.72
2019-03-19T18:43:56.435Z,11.18
2019-03-19T18:46:24.059Z,12.43
2019-03-19T18:48:51.555Z,12.07
2019-03-19T18:51:19.170Z,10.63
2019-03-19T18:53:46.817Z,10.88
2019-03-19T18:56:14.518Z,10.65
2019-03-19T18:58:42.246Z,15.10
2019-03-19T19:01:10.228Z,6.00
2019-03-19T19:03:40.357Z,8.95
2019-03-19T19:06:08.779Z,8.50
2019-03-19T19:08:38.337Z,8.65
2019-03-19T19:11:06.610Z,13.93
2019-03-19T19:13:34.905Z,18.00
2019-03-19T19:16:03.493Z,13.18
2019-03-19T19:18:33.033Z,11.65
2019-03-19T19:21:01.969Z,12.98
2019-03-19T19:23:29.413Z,12.10
2019-03-19T19:25:57.032Z,10.35
2019-03-19T19:28:25.082Z,7.28
2019-03-19T19:30:52.813Z,10.23
2019-03-19T19:33:20.035Z,10.38
2019-03-19T19:35:47.922Z,12.58
2019-03-19T19:38:15.599Z,8.45
2019-03-19T19:40:43.151Z,8.33
2019-03-19T19:43:11.355Z,13.20
2019-03-19T19:45:39.741Z,11.57
2019-03-19T19:48:07.258Z,8.43
2019-03-19T19:50:35.488Z,12.75
2019-03-19T19:53:03.645Z,10.68
2019-03-19T19:55:32.260Z,10.00
2019-03-19T19:57:59.876Z,7.60
2019-03-19T20:00:27.483Z,6.60
2019-03-19T20:02:55.074Z,12.58
2019-03-19T20:05:24.076Z,9.53
2019-03-19T20:07:52.074Z,10.85
2019-03-19T20:10:19.383Z,10.00
2019-03-19T20:12:48.414Z,9.53
2019-03-19T20:15:17.080Z,10.13
2019-03-19T20:17:44.870Z,7.22
2019-03-19T20:20:13.962Z,11.35
2019-03-19T20:22:41.611Z,8.40
2019-03-19T20:25:10.656Z,12.07
2019-03-19T20:27:38.889Z,10.23
2019-03-19T20:30:09.903Z,8.98
2019-03-19T20:32:37.221Z,12.35
2019-03-19T20:35:07.153Z,9.88
2019-03-19T20:37:36.333Z,12.80
2019-03-19T20:40:04.858Z,13.83
2019-03-19T20:42:32.846Z,10.75
2019-03-19T20:45:00.832Z,10.13
2019-03-19T20:47:28.455Z,8.18
2019-03-19T20:49:57.542Z,9.38
2019-03-19T20:52:24.823Z,14.38
2019-03-19T20:54:53.215Z,11.12
2019-03-19T20:57:22.617Z,16.80
2019-03-19T20:59:50.584Z,14.65
2019-03-19T21:02:18.483Z,16.55
2019-03-19T21:04:46.086Z,11.22
2019-03-19T21:07:14.070Z,10.88
2019-03-19T21:09:42.695Z,9.33
2019-03-19T21:12:18.802Z,12.75
2019-03-19T21:14:53.457Z,9.18
2019-03-19T21:17:21.081Z,9.08
2019-03-19T21:19:48.901Z,8.45
2019-03-19T21:22:17.402Z,12.95
2019-03-19T21:24:58.079Z,10.43
2019-03-19T21:27:44.024Z,7.75
2019-03-19T21:30:37.011Z,8.88
2019-03-19T21:33:32.656Z,8.00
2019-03-19T21:36:23.199Z,6.12
2019-03-19T21:39:13.546Z,10.20
2019-03-19T21:42:01.026Z,6.80
2019-03-19T21:44:52.542Z,11.22
2019-03-19T21:47:43.370Z,6.37
2019-03-19T21:50:33.348Z,8.53
2019-03-19T21:53:29.700Z,7.80
2019-03-19T21:56:26.392Z,9.58
2019-03-19T21:59:16.374Z,14.53
2019-03-19T22:02:00.723Z,13.30
2019-03-19T22:04:42.852Z,11.28
2019-03-19T22:07:28.355Z,11.60
2019-03-19T22:10:21.138Z,8.33
2019-03-19T22:13:04.042Z,9.05
2019-03-19T22:15:39.881Z,7.97
2019-03-19T22:18:14.961Z,14.03
2019-03-19T22:20:43.263Z,8.10
2019-03-19T22:23:11.513Z,9.45
2019-03-19T22:25:39.499Z,13.62
2019-03-19T22:28:08.044Z,10.65
2019-03-19T22:30:35.907Z,9.10
2019-03-19T22:33:03.519Z,16.27
2019-03-19T22:35:31.123Z,14.68
2019-03-19T22:37:59.116Z,12.58
2019-03-19T22:40:29.235Z,12.88
2019-03-19T22:42:57.072Z,11.00
2019-03-19T22:45:27.110Z,9.18
2019-03-19T22:47:55.395Z,16.62
2019-03-19T22:50:22.950Z,11.93
2019-03-19T22:52:51.504Z,19.20
2019-03-19T22:55:28.447Z,12.37
2019-03-19T22:57:49.857Z,12.45
2019-03-19T23:00:31.575Z,12.23
2019-03-19T23:02:59.496Z,15.68
2019-03-19T23:05:27.632Z,15.13
2019-03-19T23:07:55.527Z,10.35
2019-03-19T23:10:23.097Z,14.83
2019-03-19T23:12:50.981Z,24.75
2019-03-19T23:15:19.290Z,23.25
2019-03-19T23:17:46.670Z,17.65
2019-03-19T23:20:14.273Z,14.45
2019-03-19T23:22:42.513Z,16.05
2019-03-19T23:25:10.489Z,17.40
2019-03-19T23:27:38.171Z,17.67
2019-03-19T23:30:06.391Z,12.33
2019-03-19T23:32:34.252Z,13.13
2019-03-19T23:35:01.945Z,13.50
2019-03-19T23:37:29.562Z,16.23
2019-03-19T23:39:57.266Z,23.47
2019-03-19T23:42:24.928Z,21.17
2019-03-19T23:44:53.008Z,21.25
2019-03-19T23:47:20.988Z,21.68
